Palmdale, CA (93590)

8:34 AM PDT on September 22, 2014 (GMT -0700)
WestCoastHosting.Com | Change Station
CLOSE
Current Station
Personal Weather Station
Location: Palmdale, CA
Elevation: 2700 ft
Nearby Weather Stations

Elev 2700 ft 34.57 °N, 118.03 °W | Updated 4 minutes ago

Clear
Clear
79.9 °F
Feels Like 79 °F
N
0.0
Wind Variable Wind from SSW
Gusts 0.0 mph

Today
High -- | Low -- °F
--% Chance of Precip.
Yesterday
High -- | Low -- °F
Precip. -- in
6:40 AM 6:48 PM
Waning Crescent, 2% visible
Pressure 29.99 in
Visibility 10.0 miles
Clouds Clear
Heat Index 79 °F
Dew Point 43 °F
Humidity 27%
Rainfall 0.00 in
Snow Depth 0 in , 1 in , 0 in
UV 1 out of 12
Pollen 6.60 out of 12
Ozone Good
Flu Activity Not available.
METAR KPMD 221453Z 00000KT 10SM CLR 18/04 A3006 RMK AO2 SLP156 T01830044 53010

More Conditions Fewer Conditions

Pressure 29.99 in
Visibility 10.0 miles
Clouds Clear
Heat Index 79 °F
Dew Point 43 °F
Humidity 27%
Rainfall 0.00 in
Snow Depth 0 in , 1 in , 0 in
UV 1 out of 12
Pollen 6.60 out of 12
Ozone Good
Flu Activity Not available.
METAR KPMD 221453Z 00000KT 10SM CLR 18/04 A3006 RMK AO2 SLP156 T01830044 53010

More Conditions Fewer Conditions

10-Day Weather Forecast

Almanac

Astronomy

Sep. 22, 2014 Rise Set
Actual Time 6:40 AM PDT 6:48 PM PDT
Civil Twilight 6:15 AM PDT 7:14 PM PDT
Nautical Twilight 5:45 AM PDT 7:43 PM PDT
Astronomical Twilight 5:16 AM PDT 8:13 PM PDT
Moon 5:15 AM PDT 5:57 PM PDT
Length of Visible Light 12h 58m
Length of Day
12h 08m
Tomorrow will be 2m 10s shorter.
Waning Crescent, 2% of the Moon is Illuminated
Today
Waning Crescent
Sep 24
New
Oct 1
First Quarter
Oct 8
Full
Oct 15
Last Quarter

Today's Extremes

State Highs State Lows

Community

WunderPhotos

Upload Photos

1,755,464 photos uploaded!

Nearby

Air Quality

  Air Quality AQ Index Pollutant
Yesterday Good
OZONE
Yesterday Good
PM10
Current Good
OZONE
Monday Good
PM10
Monday Good
OZONE
Monday Good
CO
Monday Good
NO2

Snow Depth

Station Depth Elevation
Fallen Leaf 0 in 6300 ft
Echo Peak 1 in 7800 ft
Sonora Pass 0 in 8800 ft
Adin Mountain 0 in 6200 ft
Summit Meadow 1 in 9122 ft

Earthquake Activity

City Distance Mag. Time & Date
Big Bear Lake, California 64 miles 2.5 7:26 AM PDT
2014-09-22
Borrego Springs, California 136 miles 2.6 7:34 AM PDT
2014-09-21
Inyokern, California 102 miles 3.1 5:33 PM PDT
2014-09-19
Aguanga, California 106 miles 2.5 1:38 AM PDT
2014-09-19
Minimum magnitude displayed is 2.5.

Coastal Water Temperatures

Place Temperature
No Stations Reporting

Nearby Weather Stations